Time;durP1;ratioP1;P1;durP2;ratioP2;P2;SDS_P1;SDS_P2;PMS_P1;PMS_P2;Temp;Humidity;BMP_temperature;BMP_pressure;BME280_temperature;BME280_humidity;BME280_pressure;Samples;Min_cycle;Max_cycle;Signal;HPM_P1;HPM_P2
2022/09/23 00:02:19;;;;;;;5.73;4.40;;;6.30;99.90;;;;;;5011824;28;20295;-73
2022/09/23 00:04:45;;;;;;;4.20;3.90;;;6.40;99.90;;;;;;5011961;28;20648;-73
2022/09/23 00:07:11;;;;;;;5.20;4.10;;;6.30;99.90;;;;;;5011986;28;20176;-74
2022/09/23 00:09:36;;;;;;;5.23;4.70;;;6.30;99.90;;;;;;5010764;28;20185;-73
2022/09/23 00:12:02;;;;;;;4.63;4.03;;;6.30;99.90;;;;;;5011547;28;20199;-73
2022/09/23 00:14:28;;;;;;;10.73;4.90;;;6.30;99.90;;;;;;5010241;28;20207;-74
2022/09/23 00:16:53;;;;;;;5.30;4.80;;;6.30;99.90;;;;;;5011629;28;20938;-73
2022/09/23 00:19:19;;;;;;;5.53;5.00;;;6.20;99.90;;;;;;5011494;28;20305;-73
2022/09/23 00:21:44;;;;;;;4.83;4.47;;;6.30;99.90;;;;;;5012102;28;20692;-73
2022/09/23 00:24:10;;;;;;;4.50;4.07;;;6.30;99.90;;;;;;5015025;28;20171;-74
2022/09/23 00:26:35;;;;;;;6.53;4.50;;;6.20;99.90;;;;;;5015374;28;20577;-72
2022/09/23 00:29:01;;;;;;;6.57;5.73;;;6.20;99.90;;;;;;5015242;28;20533;-74
2022/09/23 00:31:26;;;;;;;6.70;5.07;;;6.20;99.90;;;;;;5015125;28;20270;-73
2022/09/23 00:34:00;;;;;;;8.00;5.43;;;6.10;99.90;;;;;;5015329;28;20180;-73
2022/09/23 00:36:26;;;;;;;6.33;5.20;;;6.10;99.90;;;;;;5015111;28;20242;-73
2022/09/23 00:38:53;;;;;;;7.40;5.10;;;6.10;99.90;;;;;;5015302;28;20434;-73
2022/09/23 00:41:20;;;;;;;6.57;5.57;;;6.00;99.90;;;;;;5015149;28;21113;-73
2022/09/23 00:43:52;;;;;;;7.57;6.07;;;6.00;99.90;;;;;;5015366;28;20445;-73
2022/09/23 00:46:33;;;;;;;6.47;5.63;;;6.00;99.90;;;;;;5014153;28;20411;-74
2022/09/23 00:49:07;;;;;;;6.90;5.50;;;6.00;99.90;;;;;;5015048;28;20904;-73
2022/09/23 00:51:37;;;;;;;10.30;6.43;;;6.00;99.90;;;;;;5014669;28;20431;-73
2022/09/23 00:54:04;;;;;;;7.37;5.27;;;6.00;99.90;;;;;;5014660;28;20406;-71
2022/09/23 00:56:31;;;;;;;8.27;5.33;;;6.00;99.90;;;;;;5014666;28;20470;-73
2022/09/23 00:58:59;;;;;;;5.33;4.83;;;5.90;99.90;;;;;;5015151;28;20411;-73
2022/09/23 02:32:16;;;;;;;5.20;4.80;;;5.30;99.90;;;;;;5483807;22;20556;-73
2022/09/23 02:34:51;;;;;;;7.30;5.10;;;5.30;99.90;;;;;;5022406;28;20586;-73
2022/09/23 02:37:47;;;;;;;4.27;3.90;;;5.30;99.90;;;;;;5032288;28;20423;-73
2022/09/23 02:40:23;;;;;;;9.67;6.10;;;5.20;99.90;;;;;;5032389;28;20462;-74
2022/09/23 02:43:03;;;;;;;5.53;5.07;;;5.20;99.90;;;;;;5032238;28;20523;-73
2022/09/23 02:45:29;;;;;;;5.50;4.87;;;5.20;99.90;;;;;;5032221;28;20481;-74
2022/09/23 02:48:11;;;;;;;8.50;5.00;;;5.20;99.90;;;;;;5032381;28;20405;-74
2022/09/23 02:50:37;;;;;;;4.40;4.00;;;5.20;99.90;;;;;;5032281;28;20849;-74
2022/09/23 02:53:03;;;;;;;4.60;4.30;;;5.20;99.90;;;;;;5032195;28;20461;-74
2022/09/23 02:55:32;;;;;;;6.30;4.40;;;5.10;99.90;;;;;;5031907;28;20458;-73
2022/09/23 02:58:02;;;;;;;6.63;4.67;;;5.10;99.90;;;;;;5031991;28;20414;-74
2022/09/23 03:01:04;;;;;;;7.03;4.87;;;5.10;99.90;;;;;;5032181;28;20420;-73
2022/09/23 03:03:48;;;;;;;4.30;4.00;;;5.00;99.90;;;;;;5032430;28;20407;-73
2022/09/23 03:06:38;;;;;;;5.30;4.30;;;5.00;99.90;;;;;;5031896;28;20827;-74
2022/09/23 03:09:09;;;;;;;4.60;4.30;;;5.00;99.90;;;;;;5030817;28;20417;-73
2022/09/23 03:11:39;;;;;;;7.93;4.53;;;5.00;99.90;;;;;;5032094;28;20440;-73
2022/09/23 03:14:29;;;;;;;5.47;4.43;;;5.00;99.90;;;;;;5032172;28;20806;-73
2022/09/23 03:17:11;;;;;;;5.23;4.80;;;5.00;99.90;;;;;;5031865;28;21004;-73
2022/09/23 03:19:41;;;;;;;5.10;4.60;;;5.00;99.90;;;;;;5032072;28;20411;-73
2022/09/23 03:22:11;;;;;;;4.60;4.20;;;5.00;99.90;;;;;;5031732;28;20451;-73
2022/09/23 03:24:38;;;;;;;5.77;4.53;;;5.00;99.90;;;;;;5032248;28;20468;-74
2022/09/23 03:27:12;;;;;;;6.27;4.83;;;4.90;99.90;;;;;;5031914;28;20520;-76
2022/09/23 03:29:44;;;;;;;6.20;5.60;;;4.90;99.90;;;;;;5031867;28;20447;-74
2022/09/23 03:32:10;;;;;;;5.30;4.80;;;4.90;99.90;;;;;;5031457;28;20463;-74
2022/09/23 03:34:38;;;;;;;5.07;4.57;;;4.90;99.90;;;;;;5031720;28;20498;-74
2022/09/23 03:37:16;;;;;;;6.97;4.83;;;4.80;99.90;;;;;;5031578;28;20484;-74
2022/09/23 03:39:47;;;;;;;4.97;4.53;;;4.80;99.90;;;;;;5032100;28;20405;-74
2022/09/23 03:42:21;;;;;;;7.20;5.00;;;4.80;99.90;;;;;;5031558;28;20864;-73
2022/09/23 03:44:47;;;;;;;6.43;5.43;;;4.70;99.90;;;;;;5031612;28;20413;-73
2022/09/23 03:47:15;;;;;;;6.33;4.37;;;4.70;99.90;;;;;;5031524;28;20928;-74
2022/09/23 03:49:44;;;;;;;4.13;3.83;;;4.70;99.90;;;;;;5031795;28;20413;-74
2022/09/23 03:52:10;;;;;;;5.50;5.00;;;4.70;99.90;;;;;;5031470;28;20437;-74
2022/09/23 03:54:35;;;;;;;4.43;4.03;;;4.70;99.90;;;;;;5031794;28;20804;-73
2022/09/23 03:57:01;;;;;;;8.70;4.70;;;4.70;99.90;;;;;;5033111;28;20185;-74
2022/09/23 03:59:29;;;;;;;7.43;4.83;;;4.70;99.90;;;;;;5036046;28;20173;-74
2022/09/23 04:01:55;;;;;;;6.53;4.57;;;4.70;99.90;;;;;;5035564;28;20915;-73
2022/09/23 04:04:20;;;;;;;5.13;4.63;;;4.70;99.90;;;;;;5035693;28;20517;-74
2022/09/23 04:06:46;;;;;;;5.27;4.73;;;4.70;99.90;;;;;;5035643;28;20429;-74
2022/09/23 04:09:12;;;;;;;6.70;5.03;;;4.70;99.90;;;;;;5035369;28;20180;-74
2022/09/23 04:11:37;;;;;;;6.23;4.60;;;4.60;99.90;;;;;;5035252;28;20805;-73
2022/09/23 04:14:03;;;;;;;5.10;4.70;;;4.60;99.90;;;;;;5035426;28;20426;-75
2022/09/23 04:16:29;;;;;;;5.27;4.77;;;4.60;99.90;;;;;;5035163;28;20566;-73
2022/09/23 04:18:54;;;;;;;10.00;5.40;;;4.50;99.90;;;;;;5035170;28;20174;-73
2022/09/23 04:21:20;;;;;;;8.80;4.90;;;4.50;99.90;;;;;;5035044;28;20211;-74
2022/09/23 04:23:45;;;;;;;13.23;6.77;;;4.50;99.90;;;;;;5035108;28;20246;-73
2022/09/23 04:26:11;;;;;;;7.37;6.10;;;4.50;99.90;;;;;;5035028;28;20235;-73
2022/09/23 04:28:37;;;;;;;5.77;5.17;;;4.50;99.90;;;;;;5035219;28;20442;-73
2022/09/23 04:31:04;;;;;;;5.23;4.73;;;4.50;99.90;;;;;;5034770;28;20534;-73
2022/09/23 04:33:30;;;;;;;6.43;5.13;;;4.50;99.90;;;;;;5034938;28;20239;-73
2022/09/23 04:35:55;;;;;;;7.93;5.57;;;4.50;99.90;;;;;;5034821;28;20465;-73
2022/09/23 04:38:21;;;;;;;6.23;5.73;;;4.50;99.90;;;;;;5034949;28;20234;-74
2022/09/23 04:40:47;;;;;;;6.00;5.43;;;4.50;99.90;;;;;;5034625;28;20676;-73
2022/09/23 04:43:14;;;;;;;5.67;5.20;;;4.50;99.90;;;;;;5034799;28;20167;-74
2022/09/23 04:45:41;;;;;;;6.43;5.70;;;4.40;99.90;;;;;;5034705;28;20463;-73
2022/09/23 04:48:08;;;;;;;5.50;4.90;;;4.50;99.90;;;;;;5034636;28;20454;-73
2022/09/23 04:50:34;;;;;;;5.50;4.97;;;4.40;99.90;;;;;;5034634;28;20491;-72
2022/09/23 04:53:00;;;;;;;7.63;5.30;;;4.50;99.90;;;;;;5034493;28;20509;-72
2022/09/23 04:55:26;;;;;;;5.83;4.63;;;4.40;99.90;;;;;;5034387;28;20225;-72
2022/09/23 04:57:51;;;;;;;4.63;4.23;;;4.50;99.90;;;;;;5034279;28;20909;-72
2022/09/23 05:00:17;;;;;;;6.30;5.80;;;4.50;99.90;;;;;;5034703;28;20564;-74
2022/09/23 05:02:48;;;;;;;6.77;5.43;;;4.50;99.90;;;;;;5034209;28;20189;-74
2022/09/23 05:05:17;;;;;;;6.20;5.70;;;4.50;99.90;;;;;;5034257;28;20181;-74
2022/09/23 05:07:43;;;;;;;8.00;5.90;;;4.50;99.90;;;;;;5033943;28;20450;-74
2022/09/23 05:10:08;;;;;;;6.57;5.97;;;4.60;99.90;;;;;;5033370;28;20509;-75
2022/09/23 05:12:34;;;;;;;7.27;6.17;;;4.60;99.90;;;;;;5034034;28;20203;-74
2022/09/23 05:14:59;;;;;;;13.63;4.93;;;4.60;99.90;;;;;;5034034;28;20210;-73
2022/09/23 05:17:25;;;;;;;7.37;5.73;;;4.70;99.90;;;;;;5034285;28;20187;-74
2022/09/23 05:19:50;;;;;;;5.37;4.93;;;4.80;99.90;;;;;;5034049;28;20180;-74
2022/09/23 05:22:16;;;;;;;5.30;4.50;;;4.80;99.90;;;;;;5034449;28;20230;-74
2022/09/23 05:24:42;;;;;;;7.60;6.20;;;4.80;99.90;;;;;;5033934;28;20186;-74
2022/09/23 05:27:07;;;;;;;5.53;5.03;;;4.90;99.90;;;;;;5034129;28;20184;-74
2022/09/23 05:29:33;;;;;;;5.70;5.13;;;4.90;99.90;;;;;;5034319;28;20211;-74
2022/09/23 05:32:00;;;;;;;5.70;5.20;;;4.90;99.90;;;;;;5033678;28;20220;-74
2022/09/23 05:34:26;;;;;;;5.63;4.90;;;5.00;99.90;;;;;;5033844;28;20750;-74
2022/09/23 05:36:52;;;;;;;6.30;5.40;;;5.00;99.90;;;;;;5033481;28;20409;-74
2022/09/23 05:39:17;;;;;;;4.53;4.10;;;5.10;99.90;;;;;;5033774;28;20180;-74
2022/09/23 05:41:43;;;;;;;5.73;5.23;;;5.20;99.90;;;;;;5033411;28;20562;-74
2022/09/23 05:44:08;;;;;;;8.03;5.07;;;5.30;99.90;;;;;;5035720;28;20174;-75
2022/09/23 05:46:34;;;;;;;5.97;5.37;;;5.40;99.90;;;;;;5035953;28;20716;-75
2022/09/23 05:49:00;;;;;;;9.53;5.67;;;5.60;99.90;;;;;;5033447;28;20176;-75
2022/09/23 05:51:27;;;;;;;9.37;6.10;;;5.80;99.90;;;;;;5033292;28;20951;-74
2022/09/23 05:53:54;;;;;;;5.73;5.23;;;6.60;99.90;;;;;;5033442;28;20828;-74
2022/09/23 05:56:22;;;;;;;4.50;3.70;;;8.10;99.90;;;;;;5033087;28;20458;-74
2022/09/23 05:58:49;;;;;;;4.33;3.93;;;9.50;99.90;;;;;;5035683;28;20420;-75
2022/09/23 06:01:20;;;;;;;12.43;4.30;;;10.50;99.90;;;;;;5034786;28;20432;-74
2022/09/23 06:03:53;;;;;;;6.33;4.20;;;11.50;99.90;;;;;;5033605;28;20910;-75
2022/09/23 06:06:25;;;;;;;4.60;3.60;;;12.40;99.90;;;;;;5033037;28;20499;-74
2022/09/23 06:08:50;;;;;;;7.80;4.90;;;13.20;99.90;;;;;;5033003;28;20424;-72
2022/09/23 06:11:16;;;;;;;5.43;4.93;;;13.90;99.90;;;;;;5033143;28;20969;-73
2022/09/23 06:13:42;;;;;;;3.90;3.60;;;14.50;99.90;;;;;;5033063;28;20184;-73
2022/09/23 06:16:12;;;;;;;4.87;4.47;;;15.00;99.90;;;;;;5032782;28;20244;-72
2022/09/23 06:18:39;;;;;;;6.37;4.43;;;15.30;99.90;;;;;;5032987;28;20174;-73
2022/09/23 06:21:05;;;;;;;5.77;4.70;;;15.90;99.90;;;;;;5032316;28;20432;-72
2022/09/23 06:23:30;;;;;;;5.37;4.27;;;16.60;99.90;;;;;;5032807;28;20413;-73
2022/09/23 06:26:04;;;;;;;5.13;4.70;;;16.10;99.90;;;;;;5032673;28;20630;-73
2022/09/23 06:28:31;;;;;;;6.40;5.60;;;16.30;99.90;;;;;;5032750;28;20170;-72
2022/09/23 06:30:58;;;;;;;5.57;4.80;;;16.80;99.90;;;;;;5032463;28;20462;-73
2022/09/23 06:33:25;;;;;;;9.27;5.30;;;17.30;99.90;;;;;;5032643;28;20462;-73
2022/09/23 06:35:58;;;;;;;11.33;4.37;;;17.70;99.90;;;;;;5032410;28;20882;-73
2022/09/23 06:38:25;;;;;;;5.93;4.80;;;18.30;99.90;;;;;;5032811;28;20423;-73
2022/09/23 06:40:52;;;;;;;5.63;4.10;;;19.10;99.90;;;;;;5031028;28;20444;-73
2022/09/23 06:43:18;;;;;;;7.30;5.37;;;19.20;99.90;;;;;;5032521;28;20417;-73
2022/09/23 06:45:43;;;;;;;5.80;4.30;;;20.10;99.90;;;;;;5032365;28;20419;-73
2022/09/23 06:48:09;;;;;;;5.93;4.93;;;20.00;99.90;;;;;;5032400;28;20503;-73
2022/09/23 06:50:35;;;;;;;5.50;5.00;;;19.10;99.90;;;;;;5032189;28;20178;-71
2022/09/23 06:53:02;;;;;;;5.13;4.53;;;19.10;99.90;;;;;;5032300;28;20674;-73
2022/09/23 06:55:28;;;;;;;5.43;4.80;;;18.80;99.90;;;;;;5032120;28;20460;-73
2022/09/23 06:57:56;;;;;;;5.60;4.67;;;18.60;99.90;;;;;;5032107;28;20411;-73
2022/09/23 07:00:22;;;;;;;6.63;4.80;;;18.60;99.90;;;;;;5032295;28;20177;-73
2022/09/23 07:02:48;;;;;;;5.90;5.33;;;19.00;99.90;;;;;;5032061;28;20439;-73
2022/09/23 07:05:16;;;;;;;5.90;5.40;;;18.50;99.90;;;;;;5031814;28;20257;-73
2022/09/23 07:07:42;;;;;;;5.53;5.10;;;18.30;99.90;;;;;;5032156;28;20176;-73
2022/09/23 07:10:09;;;;;;;5.67;5.17;;;18.30;99.90;;;;;;5032039;28;20921;-73
2022/09/23 07:12:34;;;;;;;6.33;5.73;;;18.10;99.90;;;;;;5031900;28;20433;-73
2022/09/23 07:15:00;;;;;;;6.80;5.00;;;17.90;99.90;;;;;;5031790;28;20460;-73
2022/09/23 07:17:25;;;;;;;6.07;5.47;;;17.60;99.90;;;;;;5031976;28;20714;-73
2022/09/23 07:19:51;;;;;;;6.07;5.50;;;17.40;99.90;;;;;;5031837;28;20209;-73
2022/09/23 07:22:21;;;;;;;6.77;5.90;;;17.50;99.90;;;;;;5031905;28;20670;-72
2022/09/23 07:24:47;;;;;;;9.33;5.13;;;17.60;99.90;;;;;;5031678;28;20181;-72
2022/09/23 07:27:16;;;;;;;6.80;5.60;;;17.50;99.90;;;;;;5031715;28;20860;-72
2022/09/23 07:29:42;;;;;;;8.40;6.50;;;17.60;99.90;;;;;;5031878;28;20181;-73
2022/09/23 07:32:08;;;;;;;7.03;5.70;;;17.60;99.90;;;;;;5030564;28;20452;-73
2022/09/23 07:34:33;;;;;;;6.77;5.60;;;17.60;99.90;;;;;;5031768;28;20515;-72
2022/09/23 07:36:59;;;;;;;5.80;5.30;;;17.50;99.90;;;;;;5031162;28;20445;-73
2022/09/23 07:39:24;;;;;;;6.00;5.50;;;17.30;99.90;;;;;;5031714;28;20174;-73
2022/09/23 07:41:50;;;;;;;6.00;5.40;;;17.50;99.90;;;;;;5031325;28;20193;-73
2022/09/23 07:44:19;;;;;;;6.70;5.97;;;17.30;99.90;;;;;;5032003;28;20177;-73
2022/09/23 07:46:44;;;;;;;7.90;4.93;;;17.50;99.90;;;;;;5031254;28;20405;-73
2022/09/23 07:49:10;;;;;;;11.40;5.80;;;17.40;99.90;;;;;;5031751;28;20741;-73
2022/09/23 07:51:37;;;;;;;9.27;5.60;;;17.30;99.90;;;;;;5031416;28;20665;-73
2022/09/23 07:54:08;;;;;;;6.33;5.40;;;17.30;99.90;;;;;;5031437;28;20729;-73
2022/09/23 07:56:35;;;;;;;5.43;4.90;;;17.00;99.90;;;;;;5031585;28;20436;-73
2022/09/23 07:59:02;;;;;;;6.47;4.90;;;17.20;99.90;;;;;;5031671;28;20417;-72
2022/09/23 08:01:38;;;;;;;5.43;4.93;;;17.10;99.90;;;;;;5031475;28;20511;-73
2022/09/23 08:04:12;;;;;;;6.60;4.77;;;16.70;99.90;;;;;;5031314;28;20412;-73
2022/09/23 08:06:42;;;;;;;7.33;5.07;;;16.60;99.90;;;;;;5031532;28;20408;-73
2022/09/23 08:09:08;;;;;;;6.73;5.10;;;16.60;99.90;;;;;;5031260;28;20416;-73
2022/09/23 08:11:35;;;;;;;10.23;5.60;;;16.60;99.90;;;;;;5031627;28;20437;-73
2022/09/23 08:14:00;;;;;;;7.23;5.33;;;16.60;99.90;;;;;;5031381;28;20233;-73
2022/09/23 08:16:26;;;;;;;5.70;5.20;;;16.40;99.90;;;;;;5031512;28;20456;-73
2022/09/23 08:18:51;;;;;;;6.10;4.80;;;16.30;99.90;;;;;;5031189;28;20179;-73
2022/09/23 08:21:21;;;;;;;8.60;5.80;;;16.20;99.90;;;;;;5031342;28;20194;-73
2022/09/23 08:23:47;;;;;;;6.37;5.47;;;16.30;99.90;;;;;;5031248;28;20170;-73
2022/09/23 08:26:13;;;;;;;9.07;6.03;;;16.20;99.90;;;;;;5031308;28;20496;-73
2022/09/23 08:28:38;;;;;;;7.30;5.60;;;16.30;99.90;;;;;;5031297;28;20448;-73
2022/09/23 08:31:04;;;;;;;8.23;5.70;;;16.50;99.90;;;;;;5031454;28;20635;-73
2022/09/23 08:33:30;;;;;;;10.67;5.07;;;16.60;99.90;;;;;;5031431;28;20190;-73
2022/09/23 08:36:00;;;;;;;10.47;5.20;;;16.70;99.90;;;;;;5030895;28;20457;-73
2022/09/23 08:38:26;;;;;;;8.60;5.03;;;16.70;99.90;;;;;;5031141;28;20594;-73
2022/09/23 08:41:12;;;;;;;11.37;5.70;;;16.90;99.90;;;;;;5031179;28;20409;-73
2022/09/23 08:43:39;;;;;;;10.37;5.57;;;16.90;99.90;;;;;;5033005;28;20404;-73
2022/09/23 08:46:09;;;;;;;6.60;4.87;;;17.00;99.90;;;;;;5034847;28;20412;-73
2022/09/23 08:48:46;;;;;;;7.40;5.00;;;17.10;99.90;;;;;;5034840;28;20413;-73
2022/09/23 08:51:16;;;;;;;4.70;4.37;;;17.50;99.90;;;;;;5034678;28;20451;-73
2022/09/23 08:53:44;;;;;;;8.00;5.40;;;17.60;99.90;;;;;;5033435;28;20990;-73
2022/09/23 08:56:18;;;;;;;6.63;4.83;;;17.60;99.90;;;;;;5034202;28;20472;-73
2022/09/23 08:59:09;;;;;;;7.70;5.80;;;17.90;99.90;;;;;;5034613;28;20403;-73
2022/09/23 09:01:54;;;;;;;11.50;4.00;;;17.90;99.90;;;;;;5034595;28;20475;-73
2022/09/23 09:04:35;;;;;;;5.33;4.60;;;18.10;99.90;;;;;;5034501;28;20408;-73
2022/09/23 09:07:06;;;;;;;6.60;4.03;;;17.80;99.90;;;;;;5034476;28;20766;-73
2022/09/23 09:09:38;;;;;;;6.17;4.57;;;18.10;99.90;;;;;;5034475;28;20842;-73
2022/09/23 09:12:32;;;;;;;6.93;5.90;;;18.30;99.90;;;;;;5034240;28;20797;-73
2022/09/23 09:15:19;;;;;;;6.90;5.13;;;18.50;99.90;;;;;;5033919;28;20460;-73
2022/09/23 09:18:03;;;;;;;6.60;4.73;;;18.90;99.90;;;;;;5034306;28;20412;-73
2022/09/23 09:20:50;;;;;;;6.90;4.43;;;19.50;99.90;;;;;;5034251;28;20404;-72
2022/09/23 09:23:27;;;;;;;5.53;4.87;;;19.90;99.90;;;;;;5034350;28;20559;-73
2022/09/23 09:26:00;;;;;;;5.80;3.73;;;20.20;99.90;;;;;;5033929;28;20450;-73
2022/09/23 09:28:32;;;;;;;16.10;4.40;;;20.20;99.90;;;;;;5034107;28;20909;-73
2022/09/23 09:31:15;;;;;;;1.90;1.80;;;20.20;99.90;;;;;;5033662;28;20594;-73
2022/09/23 09:33:56;;;;;;;2.90;2.70;;;20.30;99.90;;;;;;5034230;28;20473;-73
2022/09/23 09:36:41;;;;;;;2.80;2.67;;;20.10;99.90;;;;;;5033827;28;20831;-73
2022/09/23 09:39:11;;;;;;;3.60;3.20;;;20.50;99.90;;;;;;5033752;28;20431;-73
2022/09/23 09:41:40;;;;;;;3.00;2.80;;;20.70;99.90;;;;;;5033838;28;20432;-73
2022/09/23 09:44:18;;;;;;;4.73;3.30;;;20.90;99.90;;;;;;5033753;28;20412;-74
2022/09/23 09:47:13;;;;;;;2.50;2.30;;;21.20;99.90;;;;;;5033405;28;20928;-74
2022/09/23 09:50:03;;;;;;;3.30;2.20;;;21.50;99.90;;;;;;5033666;28;20508;-73
2022/09/23 09:52:29;;;;;;;4.97;2.80;;;21.60;99.90;;;;;;5033516;28;20440;-74
2022/09/23 09:55:13;;;;;;;7.30;2.60;;;21.80;99.90;;;;;;5032673;28;20466;-73
2022/09/23 09:57:44;;;;;;;3.60;3.00;;;22.40;99.90;;;;;;5033695;28;20643;-74
2022/09/23 10:00:21;;;;;;;4.17;3.57;;;22.50;99.90;;;;;;5033477;28;20499;-73
2022/09/23 10:02:58;;;;;;;6.40;2.90;;;22.40;99.90;;;;;;5033102;28;20441;-73
2022/09/23 10:05:25;;;;;;;6.13;3.67;;;22.90;99.90;;;;;;5033355;28;20465;-73
2022/09/23 10:07:51;;;;;;;3.87;2.77;;;22.80;99.90;;;;;;5033064;28;20424;-73
2022/09/23 10:10:21;;;;;;;4.60;3.63;;;22.80;99.90;;;;;;5033390;28;20432;-73
2022/09/23 10:12:48;;;;;;;4.47;3.50;;;23.00;99.90;;;;;;5033247;28;20566;-73
2022/09/23 10:15:27;;;;;;;5.00;3.40;;;23.10;99.90;;;;;;5033241;28;20460;-73
2022/09/23 10:17:53;;;;;;;6.20;3.43;;;23.20;99.90;;;;;;5033239;28;20412;-73
2022/09/23 10:20:19;;;;;;;15.63;3.90;;;23.50;99.90;;;;;;5033517;28;20409;-74
2022/09/23 10:22:45;;;;;;;3.27;2.97;;;23.60;99.90;;;;;;5033257;28;20202;-73
2022/09/23 10:25:25;;;;;;;5.23;3.83;;;23.40;99.90;;;;;;5032991;28;20430;-72
2022/09/23 10:27:51;;;;;;;4.40;3.30;;;23.70;99.90;;;;;;5033026;28;20192;-74
2022/09/23 10:30:21;;;;;;;4.57;3.60;;;24.20;99.90;;;;;;5033093;28;20424;-73
2022/09/23 10:32:47;;;;;;;3.40;3.10;;;24.40;99.90;;;;;;5032561;28;20240;-75
2022/09/23 10:35:22;;;;;;;3.10;2.50;;;24.40;99.90;;;;;;5032510;28;20510;-73
2022/09/23 10:37:56;;;;;;;2.40;2.20;;;24.30;99.90;;;;;;5032713;28;20784;-73
2022/09/23 10:46:40;;;;;;;7.30;3.00;;;25.40;99.90;;;;;;5032792;28;20416;-73
2022/09/23 10:49:39;;;;;;;8.40;3.20;;;25.50;99.90;;;;;;5032301;28;20431;-74
2022/09/23 10:52:15;;;;;;;5.37;2.93;;;25.50;99.90;;;;;;5009586;28;20535;-73
2022/09/23 10:55:08;;;;;;;4.13;3.63;;;25.00;99.90;;;;;;5032293;28;20468;-74
2022/09/23 10:58:03;;;;;;;3.83;2.87;;;24.50;99.90;;;;;;5032563;28;20404;-73
2022/09/23 11:00:39;;;;;;;7.27;3.70;;;24.50;99.90;;;;;;5032257;28;20412;-73
2022/09/23 11:03:40;;;;;;;3.30;3.10;;;24.20;99.90;;;;;;5032476;28;20413;-73
2022/09/23 11:06:20;;;;;;;3.63;3.33;;;23.70;99.90;;;;;;5009883;28;20512;-73
2022/09/23 11:09:04;;;;;;;5.30;3.70;;;23.70;99.90;;;;;;5032276;28;20440;-73
2022/09/23 11:11:54;;;;;;;4.40;2.70;;;24.10;99.90;;;;;;5032054;28;20436;-73
2022/09/23 11:14:28;;;;;;;5.47;2.93;;;23.90;99.90;;;;;;5032126;28;20413;-74
2022/09/23 11:17:03;;;;;;;3.60;3.30;;;24.10;99.90;;;;;;5032029;28;20432;-73
2022/09/23 11:20:20;;;;;;;8.47;3.40;;;24.20;99.90;;;;;;5032290;28;20487;-74
2022/09/23 11:23:11;;;;;;;6.03;3.30;;;24.30;99.90;;;;;;5014625;28;20448;-73
2022/09/23 11:26:01;;;;;;;2.80;2.60;;;24.40;99.90;;;;;;5031954;28;20404;-74
2022/09/23 11:28:41;;;;;;;5.00;2.50;;;24.30;99.90;;;;;;5031991;28;20413;-74
2022/09/23 11:31:36;;;;;;;3.83;2.90;;;24.00;99.90;;;;;;5031609;28;20452;-73
2022/09/23 11:34:07;;;;;;;2.80;2.60;;;23.80;99.90;;;;;;5031832;28;20844;-73
2022/09/23 11:36:36;;;;;;;4.43;3.13;;;24.00;99.90;;;;;;5031703;28;20511;-73
2022/09/23 11:39:22;;;;;;;3.03;2.83;;;23.60;99.90;;;;;;5031694;28;20421;-73
2022/09/23 11:41:51;;;;;;;4.40;3.60;;;23.60;99.90;;;;;;5031654;28;20424;-73
2022/09/23 11:44:27;;;;;;;3.10;2.90;;;23.30;99.90;;;;;;5031795;28;20499;-74
2022/09/23 11:47:07;;;;;;;5.70;2.60;;;23.00;99.90;;;;;;5031482;28;20788;-73
2022/09/23 11:49:53;;;;;;;7.47;3.67;;;23.10;99.90;;;;;;5031937;28;20424;-73
2022/09/23 11:52:29;;;;;;;8.30;3.60;;;23.20;99.90;;;;;;5031640;28;20432;-73
2022/09/23 11:55:15;;;;;;;4.03;3.63;;;23.30;99.90;;;;;;5031468;28;20878;-74
2022/09/23 11:57:47;;;;;;;3.77;3.47;;;23.30;99.90;;;;;;5010290;28;20447;-73
2022/09/23 12:00:36;;;;;;;5.03;3.40;;;22.80;99.90;;;;;;5031630;28;20492;-73
2022/09/23 12:03:37;;;;;;;3.50;3.30;;;22.50;99.90;;;;;;5031249;28;20413;-72
2022/09/23 12:06:08;;;;;;;3.70;3.40;;;22.10;99.90;;;;;;5023767;28;20502;-73
2022/09/23 12:08:38;;;;;;;10.60;5.00;;;22.10;99.90;;;;;;5031422;28;20416;-74
2022/09/23 12:11:07;;;;;;;3.77;3.30;;;22.20;99.90;;;;;;5031324;28;20444;-74
2022/09/23 12:13:33;;;;;;;4.00;3.60;;;22.20;99.90;;;;;;5031358;28;20949;-73
2022/09/23 12:16:16;;;;;;;5.40;3.43;;;22.40;99.90;;;;;;5031035;28;20495;-74
2022/09/23 12:18:55;;;;;;;6.10;4.37;;;22.30;99.90;;;;;;5033563;28;20166;-73
2022/09/23 12:21:44;;;;;;;4.57;4.17;;;22.00;99.90;;;;;;5035247;28;20432;-74
2022/09/23 12:24:25;;;;;;;6.00;4.57;;;21.70;99.90;;;;;;5035124;28;20466;-73
2022/09/23 12:26:56;;;;;;;6.57;5.00;;;21.40;99.90;;;;;;5034905;28;20411;-73
2022/09/23 12:29:27;;;;;;;5.70;5.10;;;21.30;99.90;;;;;;5035097;28;20417;-74
2022/09/23 12:31:53;;;;;;;4.50;4.10;;;21.30;99.90;;;;;;5035215;28;21015;-74
2022/09/23 12:34:36;;;;;;;4.57;4.17;;;21.10;99.90;;;;;;5035071;28;20420;-74
2022/09/23 12:37:03;;;;;;;5.60;4.87;;;21.20;99.90;;;;;;5034832;28;20264;-73
2022/09/23 12:39:34;;;;;;;4.77;4.30;;;20.90;99.90;;;;;;5037040;28;20483;-72
2022/09/23 12:42:03;;;;;;;8.53;4.60;;;20.80;99.90;;;;;;5048422;28;20416;-74
2022/09/23 12:44:47;;;;;;;4.20;3.90;;;20.70;99.90;;;;;;5034954;28;20511;-73
2022/09/23 12:47:26;;;;;;;4.73;4.33;;;20.80;99.90;;;;;;5034673;28;20893;-72
2022/09/23 12:49:56;;;;;;;3.60;3.30;;;20.80;99.90;;;;;;5034669;28;20413;-71
2022/09/23 12:52:25;;;;;;;4.50;3.60;;;20.80;99.90;;;;;;5034688;28;20425;-73
2022/09/23 12:54:55;;;;;;;3.60;3.27;;;20.90;99.90;;;;;;5034554;28;20495;-73
2022/09/23 12:57:32;;;;;;;3.90;3.50;;;21.00;99.90;;;;;;5034426;28;20467;-73
2022/09/23 13:00:10;;;;;;;4.47;4.10;;;20.90;99.90;;;;;;5034416;28;20495;-74
2022/09/23 13:02:39;;;;;;;16.13;3.97;;;20.90;99.90;;;;;;5034443;28;20798;-73
2022/09/23 13:08:17;;;;;;;15.17;6.47;;;20.60;99.90;;;;;;5034639;28;20412;-74
2022/09/23 13:10:48;;;;;;;5.03;3.17;;;20.50;99.90;;;;;;5034160;28;20408;-73
2022/09/23 13:13:37;;;;;;;4.70;3.37;;;20.50;99.90;;;;;;5034249;28;20428;-74
2022/09/23 13:16:19;;;;;;;4.97;3.27;;;20.30;99.90;;;;;;5034084;28;20522;-73
2022/09/23 13:18:53;;;;;;;3.37;2.60;;;20.30;99.90;;;;;;5034275;28;20431;-73
2022/09/23 13:21:44;;;;;;;2.70;2.53;;;20.40;99.90;;;;;;5034091;28;20429;-74
2022/09/23 13:24:22;;;;;;;3.60;3.30;;;20.40;99.90;;;;;;5034181;28;20494;-74
2022/09/23 13:27:22;;;;;;;5.00;4.53;;;20.50;99.90;;;;;;5032538;28;20474;-74
2022/09/23 13:29:55;;;;;;;4.27;3.70;;;20.50;99.90;;;;;;5025001;28;20432;-73
2022/09/23 13:32:24;;;;;;;7.90;6.07;;;20.50;99.90;;;;;;5033737;28;20448;-73
2022/09/23 13:34:58;;;;;;;4.03;3.63;;;20.30;99.90;;;;;;5033818;28;20453;-74
2022/09/23 13:37:39;;;;;;;10.70;2.80;;;20.10;99.90;;;;;;5033787;28;20512;-72
2022/09/23 13:40:23;;;;;;;5.93;4.20;;;20.00;99.90;;;;;;5033785;28;20427;-73
2022/09/23 13:43:03;;;;;;;3.03;2.73;;;20.10;99.90;;;;;;5033860;28;20425;-73
2022/09/23 13:45:30;;;;;;;5.57;2.83;;;20.00;99.90;;;;;;5033669;28;20420;-73
2022/09/23 13:48:06;;;;;;;3.60;2.60;;;20.00;99.90;;;;;;5033691;28;20489;-73
2022/09/23 13:50:34;;;;;;;3.93;3.63;;;20.00;99.90;;;;;;5033771;28;20413;-73
2022/09/23 13:53:04;;;;;;;7.03;3.27;;;19.90;99.90;;;;;;5033380;28;20916;-73
2022/09/23 13:55:38;;;;;;;5.53;2.90;;;20.00;99.90;;;;;;5033287;28;20559;-73
2022/09/23 13:58:04;;;;;;;3.60;2.87;;;20.00;99.90;;;;;;5033346;28;20458;-74
2022/09/23 14:00:37;;;;;;;3.53;3.23;;;20.20;99.90;;;;;;5033656;28;20460;-73
2022/09/23 14:03:22;;;;;;;6.07;2.53;;;20.20;99.90;;;;;;5033187;28;20427;-74
2022/09/23 14:05:48;;;;;;;4.40;3.73;;;20.40;99.90;;;;;;5033286;28;20416;-72
2022/09/23 14:08:14;;;;;;;4.33;3.90;;;20.50;99.90;;;;;;5033365;28;20924;-73
2022/09/23 14:10:42;;;;;;;3.57;3.10;;;20.50;99.90;;;;;;5033247;28;20186;-73
2022/09/23 14:13:14;;;;;;;4.80;3.37;;;20.60;99.90;;;;;;5033322;28;20426;-74
2022/09/23 14:15:40;;;;;;;5.00;4.10;;;20.60;99.90;;;;;;5033098;28;20468;-72
2022/09/23 14:18:06;;;;;;;5.80;3.67;;;20.40;99.90;;;;;;5033021;28;20420;-74
2022/09/23 14:20:43;;;;;;;4.93;3.20;;;20.10;99.90;;;;;;5033255;28;20170;-73
2022/09/23 14:23:12;;;;;;;4.67;4.27;;;20.10;99.90;;;;;;5032940;28;20496;-73
2022/09/23 14:25:40;;;;;;;6.23;3.70;;;20.20;99.90;;;;;;5033447;28;20420;-73
2022/09/23 14:28:06;;;;;;;3.30;3.00;;;20.30;99.90;;;;;;5033239;28;20416;-74
2022/09/23 14:30:32;;;;;;;4.77;3.53;;;20.20;99.90;;;;;;5033452;28;20494;-72
2022/09/23 14:32:58;;;;;;;4.03;3.57;;;20.20;99.90;;;;;;5033185;28;20685;-73
2022/09/23 14:35:36;;;;;;;5.60;3.47;;;20.20;99.90;;;;;;5033264;28;20464;-71
2022/09/23 14:41:14;;;;;;;3.83;3.53;;;20.20;99.90;;;;;;5032835;28;20809;-73
2022/09/23 14:43:48;;;;;;;5.47;4.13;;;20.10;99.90;;;;;;5032932;28;20416;-73
2022/09/23 14:46:21;;;;;;;4.00;3.70;;;20.00;99.90;;;;;;5032781;28;20413;-73
2022/09/23 14:48:59;;;;;;;4.57;4.17;;;19.90;99.90;;;;;;5032503;28;20438;-74
2022/09/23 14:51:50;;;;;;;4.47;3.77;;;19.70;99.90;;;;;;5032516;28;20808;-73
2022/09/23 14:54:40;;;;;;;6.97;5.00;;;19.70;99.90;;;;;;5027559;28;20432;-74
2022/09/23 14:57:24;;;;;;;5.50;3.10;;;19.60;99.90;;;;;;5031125;28;21004;-73
2022/09/23 15:00:07;;;;;;;3.40;3.03;;;19.50;99.90;;;;;;5032306;28;20412;-74